Time;durP1;ratioP1;P1;durP2;ratioP2;P2;SDS_P1;SDS_P2;PMS_P1;PMS_P2;Temp;Humidity;BMP_temperature;BMP_pressure;BME280_temperature;BME280_humidity;BME280_pressure;Samples;Min_cycle;Max_cycle;Signal;HPM_P1;HPM_P2
2021/03/27 00:00:54;;;;;;;2.30;1.92;;;8.70;71.90;;;;;;4940155;29;20038;-91
2021/03/27 00:03:46;;;;;;;3.33;2.15;;;8.70;71.90;;;;;;4952711;28;20031;-90
2021/03/27 00:06:40;;;;;;;2.83;2.50;;;8.70;72.20;;;;;;4942813;29;20076;-90
2021/03/27 00:09:30;;;;;;;2.88;1.95;;;8.60;73.20;;;;;;4948002;28;20146;-91
2021/03/27 00:12:02;;;;;;;2.30;2.10;;;8.60;72.50;;;;;;4940797;28;20538;-90
2021/03/27 00:14:48;;;;;;;2.10;1.90;;;8.50;72.70;;;;;;4967927;28;20502;-90
2021/03/27 00:17:32;;;;;;;2.85;1.95;;;8.50;72.60;;;;;;4947919;28;20504;-91
2021/03/27 00:20:07;;;;;;;3.08;2.50;;;8.50;72.40;;;;;;4944875;28;20059;-89
2021/03/27 00:22:49;;;;;;;2.80;2.22;;;8.50;72.40;;;;;;4956391;28;20102;-92
2021/03/27 00:25:27;;;;;;;2.00;1.80;;;8.50;72.90;;;;;;4958395;28;20035;-90
2021/03/27 00:28:00;;;;;;;3.85;3.22;;;8.40;72.70;;;;;;4946482;29;20493;-91
2021/03/27 00:30:33;;;;;;;3.60;3.13;;;8.40;73.10;;;;;;4953228;28;20041;-89
2021/03/27 00:33:00;;;;;;;4.13;2.92;;;8.40;73.00;;;;;;4957665;29;20031;-92
2021/03/27 00:35:33;;;;;;;2.15;1.95;;;8.30;73.30;;;;;;4973283;28;20512;-92
2021/03/27 00:38:03;;;;;;;3.38;2.25;;;8.30;73.20;;;;;;4954089;28;20039;-92
2021/03/27 00:40:33;;;;;;;1.70;1.60;;;8.30;73.30;;;;;;4957222;28;20122;-90
2021/03/27 00:43:28;;;;;;;1.42;1.33;;;8.30;73.30;;;;;;4963660;28;20045;-89
2021/03/27 00:45:57;;;;;;;1.92;1.50;;;8.20;73.50;;;;;;4960111;28;20525;-89
2021/03/27 00:48:30;;;;;;;1.20;1.10;;;8.20;73.90;;;;;;4971509;28;20494;-90
2021/03/27 00:50:59;;;;;;;1.67;1.20;;;8.20;73.70;;;;;;4956467;28;20050;-91
2021/03/27 00:53:36;;;;;;;1.13;1.02;;;8.30;73.60;;;;;;4956918;28;20027;-92
2021/03/27 00:56:11;;;;;;;1.38;1.10;;;8.30;73.50;;;;;;4972877;28;20031;-91
2021/03/27 00:58:45;;;;;;;1.02;0.90;;;8.20;73.80;;;;;;4957610;28;20024;-91
2021/03/27 01:01:12;;;;;;;0.85;0.80;;;8.20;73.70;;;;;;4973350;28;20024;-91
2021/03/27 01:03:48;;;;;;;1.75;0.70;;;8.30;73.50;;;;;;4958259;28;20027;-91
2021/03/27 01:06:18;;;;;;;1.83;1.10;;;8.30;73.40;;;;;;4958710;28;20019;-90
2021/03/27 01:08:48;;;;;;;1.27;0.90;;;8.20;73.80;;;;;;4959435;28;20027;-91
2021/03/27 01:11:22;;;;;;;0.82;0.82;;;8.20;74.00;;;;;;4959507;28;20019;-91
2021/03/27 01:13:52;;;;;;;1.15;0.90;;;8.20;74.30;;;;;;4972273;28;20122;-90
2021/03/27 01:16:30;;;;;;;1.00;0.82;;;8.10;74.50;;;;;;4953544;28;20028;-91
2021/03/27 01:19:06;;;;;;;1.10;1.00;;;8.10;74.60;;;;;;4950308;28;20490;-90
2021/03/27 01:21:39;;;;;;;1.58;1.00;;;8.10;74.60;;;;;;4959043;29;20031;-93
2021/03/27 01:24:10;;;;;;;2.30;1.75;;;8.00;74.80;;;;;;4969292;28;20031;-91
2021/03/27 01:26:39;;;;;;;3.00;1.80;;;8.00;74.80;;;;;;4975716;28;20501;-91
2021/03/27 01:29:08;;;;;;;2.30;1.90;;;8.00;75.00;;;;;;4977913;28;20047;-90
2021/03/27 01:31:36;;;;;;;3.15;2.28;;;8.00;74.90;;;;;;4978902;28;20035;-89
2021/03/27 01:34:19;;;;;;;2.53;1.67;;;8.00;74.90;;;;;;4980166;28;20007;-90
2021/03/27 01:36:55;;;;;;;;;;;8.00;75.00;;;;;;4980796;28;20035;-89
2021/03/27 01:39:28;;;;;;;3.17;2.20;;;8.00;75.00;;;;;;4975986;28;19910;-91
2021/03/27 01:42:40;;;;;;;3.72;2.90;;;8.00;75.40;;;;;;4967487;28;20027;-90
2021/03/27 01:45:05;;;;;;;4.75;2.80;;;8.00;75.40;;;;;;4931066;29;20043;-91
2021/03/27 01:47:53;;;;;;;5.00;2.38;;;8.00;75.50;;;;;;4957734;28;20027;-89
2021/03/27 01:50:35;;;;;;;3.53;2.55;;;8.00;75.40;;;;;;4955390;28;20130;-90
2021/03/27 01:53:16;;;;;;;4.53;2.95;;;8.10;75.20;;;;;;4958247;29;20023;-89
2021/03/27 01:55:52;;;;;;;3.47;2.50;;;8.00;75.10;;;;;;4970186;29;20043;-86
2021/03/27 01:58:28;;;;;;;5.03;3.38;;;8.10;75.30;;;;;;4974805;28;20022;-88
2021/03/27 02:01:03;;;;;;;6.30;3.90;;;8.00;75.40;;;;;;4972121;28;20019;-88
2021/03/27 02:03:50;;;;;;;5.53;3.65;;;8.00;76.40;;;;;;4963359;28;20127;-88
2021/03/27 02:06:41;;;;;;;5.80;4.10;;;8.00;75.80;;;;;;4970440;28;20058;-88
2021/03/27 02:09:17;;;;;;;5.88;4.32;;;8.00;76.10;;;;;;4959893;28;20224;-88
2021/03/27 02:12:05;;;;;;;8.70;6.15;;;8.00;76.00;;;;;;4960534;28;20062;-89
2021/03/27 02:14:58;;;;;;;5.45;4.38;;;8.00;76.20;;;;;;4959767;28;20131;-90
2021/03/27 02:17:54;;;;;;;4.18;3.28;;;7.90;76.00;;;;;;4957248;28;20063;-91
2021/03/27 02:20:41;;;;;;;6.35;4.40;;;8.00;76.20;;;;;;4951821;29;20035;-87
2021/03/27 02:23:21;;;;;;;5.68;3.78;;;7.90;76.10;;;;;;4953911;28;20067;-86
2021/03/27 02:26:05;;;;;;;7.68;4.22;;;7.90;76.20;;;;;;4954291;28;20398;-88
2021/03/27 02:29:02;;;;;;;3.45;2.30;;;7.80;75.90;;;;;;4968184;28;20027;-89
2021/03/27 02:31:36;;;;;;;2.33;1.63;;;7.60;75.40;;;;;;4936403;29;20039;-89
2021/03/27 02:34:18;;;;;;;1.95;1.45;;;7.20;75.10;;;;;;4953011;28;20724;-88
2021/03/27 02:37:03;;;;;;;2.40;1.60;;;7.00;75.30;;;;;;4953439;28;20038;-88
2021/03/27 02:40:12;;;;;;;2.60;1.98;;;6.90;74.90;;;;;;4948797;29;20085;-88
2021/03/27 02:42:58;;;;;;;3.92;2.70;;;6.90;75.80;;;;;;4950455;29;20188;-89
2021/03/27 02:45:35;;;;;;;4.85;3.05;;;6.80;76.00;;;;;;4964684;28;20038;-87
2021/03/27 02:48:21;;;;;;;6.45;4.20;;;6.80;76.40;;;;;;4965298;28;20051;-89
2021/03/27 02:51:11;;;;;;;7.40;4.90;;;6.80;76.70;;;;;;4967203;28;20043;-90
2021/03/27 02:54:15;;;;;;;5.18;3.50;;;6.80;77.20;;;;;;4954760;28;20019;-90
2021/03/27 02:57:03;;;;;;;10.63;4.80;;;6.90;77.10;;;;;;4953053;28;20030;-87
2021/03/27 02:59:50;;;;;;;6.25;4.00;;;6.90;77.40;;;;;;4950682;29;20445;-87
2021/03/27 03:02:18;;;;;;;6.75;3.92;;;6.90;77.30;;;;;;4952146;29;20019;-86
2021/03/27 03:04:46;;;;;;;6.85;4.70;;;7.00;77.20;;;;;;4965081;28;20066;-88
2021/03/27 03:07:37;;;;;;;7.15;4.50;;;7.00;77.70;;;;;;4968634;28;20033;-88
2021/03/27 03:10:17;;;;;;;8.38;5.82;;;7.00;77.90;;;;;;4949808;29;20130;-89
2021/03/27 03:13:05;;;;;;;6.00;3.90;;;7.10;78.30;;;;;;4953993;28;20094;-89
2021/03/27 03:15:49;;;;;;;6.22;4.40;;;7.10;78.30;;;;;;4952812;28;20046;-89
2021/03/27 03:18:17;;;;;;;8.18;4.95;;;7.10;78.30;;;;;;4954218;29;20030;-90
2021/03/27 03:20:56;;;;;;;6.85;4.40;;;7.10;78.40;;;;;;4954787;28;20023;-90
2021/03/27 03:23:30;;;;;;;8.13;4.50;;;7.10;78.60;;;;;;4954811;28;20023;-91
2021/03/27 03:26:20;;;;;;;5.55;3.90;;;7.10;78.50;;;;;;4953758;28;20129;-91
2021/03/27 03:29:13;;;;;;;7.38;4.20;;;7.10;78.60;;;;;;4948301;28;20027;-89
2021/03/27 03:32:05;;;;;;;8.57;4.80;;;7.10;78.50;;;;;;4954597;28;20363;-91
2021/03/27 03:34:58;;;;;;;7.55;5.32;;;7.10;78.60;;;;;;4954226;29;20572;-91
2021/03/27 03:37:41;;;;;;;5.25;3.95;;;7.10;78.60;;;;;;4935498;29;20123;-91
2021/03/27 03:40:24;;;;;;;7.53;4.03;;;7.20;78.50;;;;;;4951673;28;20023;-91
2021/03/27 03:43:05;;;;;;;6.18;3.67;;;7.20;78.40;;;;;;4953598;28;20058;-89
2021/03/27 03:45:44;;;;;;;9.35;5.30;;;7.20;78.40;;;;;;4953518;28;20055;-91
2021/03/27 03:48:34;;;;;;;7.10;4.22;;;7.20;78.70;;;;;;4951501;29;20055;-90
2021/03/27 03:51:09;;;;;;;10.95;5.57;;;7.20;79.50;;;;;;4953159;29;20043;-89
2021/03/27 03:54:27;;;;;;;8.55;4.60;;;7.20;79.00;;;;;;4951706;28;20023;-89
2021/03/27 03:57:31;;;;;;;5.45;3.85;;;7.20;78.80;;;;;;4919176;29;20031;-88
2021/03/27 04:00:09;;;;;;;9.15;5.40;;;7.20;78.80;;;;;;4943604;28;20038;-89
2021/03/27 04:02:37;;;;;;;7.93;5.18;;;7.20;79.10;;;;;;4951720;28;20023;-90
2021/03/27 04:05:11;;;;;;;8.57;5.35;;;7.20;79.30;;;;;;4950681;29;20557;-88
2021/03/27 04:07:42;;;;;;;8.80;4.80;;;7.20;79.30;;;;;;4952784;28;20031;-90
2021/03/27 04:10:21;;;;;;;9.00;5.57;;;7.20;79.20;;;;;;4945263;29;20138;-88
2021/03/27 04:12:59;;;;;;;9.95;5.43;;;7.30;79.20;;;;;;4951793;28;20035;-92
2021/03/27 04:15:37;;;;;;;7.78;4.80;;;7.30;79.20;;;;;;4949309;28;20492;-91
2021/03/27 04:18:34;;;;;;;14.13;7.00;;;7.30;79.20;;;;;;4944678;28;20031;-91
2021/03/27 04:21:20;;;;;;;10.07;5.32;;;7.30;79.60;;;;;;4948294;29;20089;-90
2021/03/27 04:23:57;;;;;;;12.48;6.05;;;7.30;79.40;;;;;;4951736;29;20514;-90
2021/03/27 04:26:47;;;;;;;8.80;4.82;;;7.30;79.30;;;;;;4950861;28;20147;-90
2021/03/27 04:29:36;;;;;;;6.95;4.18;;;7.30;79.20;;;;;;4944319;29;20090;-89
2021/03/27 04:32:14;;;;;;;10.10;5.40;;;7.30;79.00;;;;;;4961927;28;20038;-89
2021/03/27 04:34:50;;;;;;;6.95;4.78;;;7.30;79.00;;;;;;4949898;29;20114;-88
2021/03/27 04:37:33;;;;;;;8.52;4.68;;;7.30;79.00;;;;;;4949011;28;20023;-88
2021/03/27 04:40:21;;;;;;;8.52;5.07;;;7.30;78.90;;;;;;4948268;28;20032;-88
2021/03/27 04:42:53;;;;;;;9.48;5.10;;;7.30;78.80;;;;;;4964202;28;20039;-89
2021/03/27 04:45:26;;;;;;;7.13;4.60;;;7.30;78.70;;;;;;4949067;28;20078;-89
2021/03/27 04:48:29;;;;;;;9.77;4.60;;;7.30;78.90;;;;;;4950792;28;20098;-89
2021/03/27 04:51:27;;;;;;;7.95;3.60;;;7.30;79.10;;;;;;4964356;28;20502;-92
2021/03/27 04:54:19;;;;;;;7.28;4.18;;;7.30;78.80;;;;;;4951111;28;20023;-88
2021/03/27 04:57:07;;;;;;;6.15;3.50;;;7.30;78.70;;;;;;4949159;28;20023;-88
2021/03/27 04:59:57;;;;;;;7.38;4.32;;;7.30;78.60;;;;;;4965111;28;20032;-89
2021/03/27 05:02:32;;;;;;;8.32;4.03;;;7.30;78.80;;;;;;4951055;28;20111;-88
2021/03/27 05:05:23;;;;;;;8.00;3.72;;;7.30;78.90;;;;;;4949786;28;20023;-88
2021/03/27 05:08:01;;;;;;;7.68;3.70;;;7.20;78.90;;;;;;4952805;28;20077;-86
2021/03/27 05:10:40;;;;;;;6.50;3.75;;;7.20;78.80;;;;;;4969276;28;20038;-88
2021/03/27 05:13:16;;;;;;;8.30;3.85;;;7.20;78.90;;;;;;4953028;29;20054;-87
2021/03/27 05:16:13;;;;;;;7.05;3.17;;;7.20;78.80;;;;;;4953203;28;20023;-86
2021/03/27 05:18:59;;;;;;;8.85;3.30;;;7.30;78.70;;;;;;4941931;29;20039;-87
2021/03/27 05:21:43;;;;;;;7.40;3.80;;;7.30;78.50;;;;;;4954110;29;20585;-88
2021/03/27 05:24:51;;;;;;;6.40;2.67;;;7.30;78.80;;;;;;4954009;29;20023;-88
2021/03/27 05:27:31;;;;;;;6.68;3.22;;;7.30;78.80;;;;;;4965013;28;20032;-87
2021/03/27 05:30:17;;;;;;;8.27;3.60;;;7.30;79.10;;;;;;4953701;28;20063;-88
2021/03/27 05:33:26;;;;;;;7.45;2.92;;;7.20;79.40;;;;;;4955104;29;20117;-88
2021/03/27 05:36:14;;;;;;;4.45;2.10;;;7.10;79.60;;;;;;4946643;28;20036;-92
2021/03/27 05:39:14;;;;;;;4.38;1.88;;;7.10;79.40;;;;;;4946399;28;20323;-91
2021/03/27 05:42:07;;;;;;;5.32;2.58;;;7.00;79.30;;;;;;4944703;28;20050;-89
2021/03/27 05:44:56;;;;;;;;;;;7.00;79.10;;;;;;4960377;28;20074;-91
2021/03/27 05:47:58;;;;;;;3.97;1.80;;;6.90;79.10;;;;;;4950712;28;20017;-92
2021/03/27 05:50:50;;;;;;;4.95;2.22;;;6.90;79.30;;;;;;4954327;29;20043;-88
2021/03/27 05:53:54;;;;;;;4.35;1.88;;;6.90;79.10;;;;;;4936036;28;20126;-88
2021/03/27 05:56:57;;;;;;;6.30;1.98;;;6.90;78.90;;;;;;4927008;29;20035;-86
2021/03/27 05:59:32;;;;;;;9.07;2.25;;;7.00;78.80;;;;;;4940679;29;20027;-87
2021/03/27 06:02:13;;;;;;;3.33;1.40;;;7.00;78.70;;;;;;4951585;28;20110;-87
2021/03/27 06:04:49;;;;;;;4.95;1.55;;;7.00;78.70;;;;;;4954201;28;20023;-87
2021/03/27 06:07:48;;;;;;;4.88;1.70;;;7.10;78.70;;;;;;4940708;28;20533;-88
2021/03/27 06:10:44;;;;;;;4.20;1.65;;;7.10;78.50;;;;;;4946998;29;20122;-88
2021/03/27 06:13:50;;;;;;;5.60;2.25;;;7.10;78.30;;;;;;4954474;28;20386;-88
2021/03/27 06:16:27;;;;;;;7.40;2.30;;;7.10;78.40;;;;;;4950072;28;20474;-87
2021/03/27 06:19:25;;;;;;;4.25;1.50;;;7.10;78.40;;;;;;4951497;28;20422;-89
2021/03/27 06:22:18;;;;;;;7.22;2.00;;;7.10;78.60;;;;;;4948651;29;20043;-88
2021/03/27 06:24:52;;;;;;;5.38;1.80;;;7.10;78.40;;;;;;4959682;28;20037;-89
2021/03/27 06:27:33;;;;;;;7.20;1.63;;;7.00;78.10;;;;;;4955647;29;20118;-89
2021/03/27 06:30:17;;;;;;;5.32;2.13;;;7.00;78.00;;;;;;4954565;28;20189;-90
2021/03/27 06:33:20;;;;;;;5.50;1.73;;;7.00;77.70;;;;;;4951521;29;20027;-90
2021/03/27 06:36:03;;;;;;;5.55;1.45;;;7.00;77.60;;;;;;4955726;28;20030;-92
2021/03/27 06:39:05;;;;;;;6.10;1.65;;;7.00;77.50;;;;;;4955505;28;20114;-93
2021/03/27 06:41:49;;;;;;;4.63;1.40;;;7.10;77.40;;;;;;4937136;29;20102;-93
2021/03/27 06:44:36;;;;;;;4.75;1.83;;;7.10;77.30;;;;;;4953777;28;20106;-91
2021/03/27 06:47:30;;;;;;;5.07;1.50;;;7.10;77.30;;;;;;4955616;28;20031;-95
2021/03/27 06:50:17;;;;;;;4.65;1.50;;;7.00;76.90;;;;;;4962879;28;20051;-94
2021/03/27 06:53:21;;;;;;;4.40;1.38;;;6.90;76.80;;;;;;4955551;29;20062;-94
2021/03/27 06:55:49;;;;;;;4.57;1.45;;;7.00;76.80;;;;;;4956075;28;20031;-94
2021/03/27 06:58:52;;;;;;;4.40;1.48;;;7.00;76.40;;;;;;4955464;28;20034;-92
2021/03/27 07:01:56;;;;;;;6.28;1.35;;;7.10;76.20;;;;;;4957829;28;20135;-96
2021/03/27 07:04:27;;;;;;;3.97;1.20;;;7.20;75.90;;;;;;4948550;28;20454;-96
2021/03/27 07:07:02;;;;;;;3.95;1.25;;;7.10;75.50;;;;;;4956431;28;20015;-95
2021/03/27 07:10:08;;;;;;;2.85;1.23;;;7.10;75.60;;;;;;4970600;28;20112;-96
2021/03/27 07:12:58;;;;;;;5.50;1.40;;;7.00;75.50;;;;;;4956500;28;20044;-96
2021/03/27 07:15:30;;;;;;;3.05;1.30;;;7.00;75.60;;;;;;4956044;28;20027;-95
2021/03/27 07:18:14;;;;;;;4.20;1.10;;;7.00;75.60;;;;;;4959164;28;20019;-95
2021/03/27 07:20:46;;;;;;;4.75;1.67;;;7.20;75.60;;;;;;4954408;28;20027;-94
2021/03/27 07:23:34;;;;;;;4.93;1.65;;;7.30;75.20;;;;;;4954292;28;20031;-93
2021/03/27 07:26:36;;;;;;;5.32;1.60;;;7.40;74.80;;;;;;4970740;28;20501;-94
2021/03/27 07:29:31;;;;;;;6.17;1.70;;;7.50;74.30;;;;;;4952958;28;20038;-94
2021/03/27 07:32:34;;;;;;;5.93;1.60;;;7.70;74.40;;;;;;4954657;28;20306;-93
2021/03/27 07:35:25;;;;;;;4.03;1.50;;;7.90;74.10;;;;;;4955046;28;20039;-96
2021/03/27 07:38:29;;;;;;;5.43;1.65;;;8.00;73.60;;;;;;4956943;29;20105;-95
2021/03/27 07:41:06;;;;;;;4.85;1.80;;;8.20;73.20;;;;;;4974025;28;20023;-96
2021/03/27 07:43:38;;;;;;;5.03;1.70;;;8.30;72.80;;;;;;4955977;28;20088;-96
2021/03/27 07:46:09;;;;;;;4.75;1.50;;;8.30;72.70;;;;;;4937800;29;20048;-94
2021/03/27 07:48:54;;;;;;;2.58;1.33;;;8.50;72.70;;;;;;4957598;29;20027;-96
2021/03/27 07:51:28;;;;;;;3.83;1.30;;;8.50;72.40;;;;;;4957964;28;20646;-92
2021/03/27 07:54:12;;;;;;;4.30;1.50;;;8.50;72.20;;;;;;4974597;28;20039;-92
2021/03/27 07:57:00;;;;;;;4.13;1.40;;;8.50;72.30;;;;;;4954010;28;20023;-87
2021/03/27 07:59:47;;;;;;;4.18;1.48;;;8.30;72.50;;;;;;4941016;29;20043;-85
2021/03/27 08:02:48;;;;;;;6.53;2.00;;;8.30;72.50;;;;;;4944109;29;20027;-90
2021/03/27 08:05:51;;;;;;;3.95;1.25;;;8.30;72.50;;;;;;4951338;28;20086;-89
2021/03/27 08:08:56;;;;;;;5.97;1.77;;;8.40;72.50;;;;;;4951114;28;20039;-89
2021/03/27 08:11:30;;;;;;;6.95;2.13;;;8.30;72.40;;;;;;4950617;29;20038;-89
2021/03/27 08:14:26;;;;;;;5.75;1.50;;;8.20;72.20;;;;;;4952975;28;20027;-89
2021/03/27 08:17:29;;;;;;;3.47;1.50;;;8.20;72.20;;;;;;4952400;29;20119;-87
2021/03/27 08:20:01;;;;;;;;;;;8.20;72.20;;;;;;4946370;28;20059;-89
2021/03/27 08:23:00;;;;;;;7.40;1.80;;;8.20;72.10;;;;;;4954841;28;19914;-90
2021/03/27 08:25:49;;;;;;;5.60;1.60;;;8.20;72.20;;;;;;4952468;28;20027;-89
2021/03/27 08:28:44;;;;;;;6.50;1.70;;;8.20;72.30;;;;;;4950146;28;20628;-89
2021/03/27 08:31:24;;;;;;;7.03;1.60;;;8.10;72.00;;;;;;4948603;29;20091;-89
2021/03/27 08:34:25;;;;;;;5.57;1.50;;;8.10;72.00;;;;;;4950917;28;20031;-90
2021/03/27 08:36:57;;;;;;;7.90;1.23;;;8.10;72.10;;;;;;4947734;29;20039;-89
2021/03/27 08:39:43;;;;;;;;;;;8.20;72.00;;;;;;4963232;28;20360;-88
2021/03/27 08:42:23;;;;;;;6.97;1.88;;;8.30;72.00;;;;;;4946178;28;19907;-89
2021/03/27 08:45:13;;;;;;;8.32;2.05;;;8.20;72.10;;;;;;4957020;28;20046;-89
2021/03/27 08:47:57;;;;;;;6.45;1.92;;;8.00;71.90;;;;;;4953975;28;20047;-90
2021/03/27 08:50:50;;;;;;;5.70;1.65;;;7.80;71.60;;;;;;4965782;28;20039;-90
2021/03/27 08:53:34;;;;;;;;;;;7.70;71.70;;;;;;4966337;28;20031;-91
2021/03/27 08:56:33;;;;;;;4.97;1.50;;;7.70;71.30;;;;;;4956669;28;19968;-91
2021/03/27 08:59:39;;;;;;;4.35;1.27;;;7.60;71.00;;;;;;4954783;29;20035;-91
2021/03/27 09:02:07;;;;;;;4.88;1.35;;;7.70;70.80;;;;;;4956434;28;20037;-91
2021/03/27 09:05:05;;;;;;;4.13;1.67;;;7.70;70.60;;;;;;4955087;28;20024;-87
2021/03/27 09:07:45;;;;;;;5.30;1.38;;;7.50;70.30;;;;;;4952606;28;20035;-87
2021/03/27 09:10:32;;;;;;;5.78;1.83;;;7.30;70.60;;;;;;4944836;28;20044;-90
2021/03/27 09:13:40;;;;;;;4.13;1.30;;;7.30;71.00;;;;;;4947793;28;20035;-89
2021/03/27 09:16:41;;;;;;;3.40;0.95;;;7.10;71.50;;;;;;4957136;28;20638;-88
2021/03/27 09:19:28;;;;;;;3.92;1.02;;;6.80;71.90;;;;;;4966667;28;21779;-88
2021/03/27 09:22:12;;;;;;;2.78;1.40;;;6.70;72.50;;;;;;4951142;28;20054;-89
2021/03/27 09:24:46;;;;;;;4.53;1.42;;;6.70;73.00;;;;;;4953165;28;20043;-87
2021/03/27 09:27:30;;;;;;;4.53;1.75;;;6.70;73.40;;;;;;4968915;28;20055;-87
2021/03/27 09:30:06;;;;;;;3.80;1.40;;;6.80;73.60;;;;;;4952994;29;20133;-88
2021/03/27 09:32:38;;;;;;;3.05;1.40;;;7.00;74.20;;;;;;4954037;29;20043;-89
2021/03/27 09:35:07;;;;;;;5.80;2.03;;;7.20;73.90;;;;;;4954362;28;20027;-90
2021/03/27 09:37:59;;;;;;;5.60;1.70;;;7.30;74.10;;;;;;4955564;29;20039;-89
2021/03/27 09:40:30;;;;;;;7.32;2.17;;;7.50;73.90;;;;;;4955052;28;20467;-89
2021/03/27 09:43:33;;;;;;;6.70;1.73;;;7.70;73.60;;;;;;4955678;28;20125;-89
2021/03/27 09:46:29;;;;;;;7.57;1.70;;;7.90;73.20;;;;;;4955079;28;20489;-91
2021/03/27 09:49:17;;;;;;;8.40;1.83;;;8.20;72.90;;;;;;4955087;28;20036;-89
2021/03/27 09:52:13;;;;;;;7.95;2.35;;;8.40;72.40;;;;;;4951362;29;20046;-88
2021/03/27 09:54:48;;;;;;;4.43;1.73;;;8.70;72.40;;;;;;4970007;28;20399;-89
2021/03/27 09:57:37;;;;;;;3.50;1.60;;;8.90;71.80;;;;;;4955236;29;20028;-88
2021/03/27 10:00:14;;;;;;;8.80;2.20;;;9.00;71.00;;;;;;4943643;29;20038;-89
2021/03/27 10:03:07;;;;;;;6.45;1.95;;;9.00;69.90;;;;;;4953888;28;20054;-89
2021/03/27 10:05:35;;;;;;;;;;;8.90;68.60;;;;;;4970203;28;20046;-88
2021/03/27 10:08:27;;;;;;;3.85;1.52;;;8.90;68.00;;;;;;4954170;28;19913;-88
2021/03/27 10:11:04;;;;;;;4.95;1.45;;;8.90;67.90;;;;;;4953368;28;20035;-88
2021/03/27 10:13:39;;;;;;;3.92;1.40;;;9.00;67.70;;;;;;4943802;28;20031;-86
2021/03/27 10:16:10;;;;;;;4.25;1.55;;;9.10;67.60;;;;;;4953267;28;20027;-89
2021/03/27 10:18:50;;;;;;;8.80;2.00;;;9.30;66.80;;;;;;4955300;28;20087;-89
2021/03/27 10:21:28;;;;;;;7.88;1.77;;;9.30;64.20;;;;;;4969455;28;20035;-89
2021/03/27 10:23:59;;;;;;;4.55;1.63;;;9.30;63.30;;;;;;4953097;28;20054;-89
2021/03/27 10:26:36;;;;;;;5.03;1.50;;;9.20;63.10;;;;;;4968569;28;20035;-90
2021/03/27 10:29:42;;;;;;;4.53;1.42;;;9.20;62.10;;;;;;4950310;28;20027;-89
2021/03/27 10:32:31;;;;;;;4.72;1.55;;;9.20;60.80;;;;;;4945781;29;20046;-89
2021/03/27 10:35:35;;;;;;;5.97;1.60;;;9.20;60.20;;;;;;4947664;28;20153;-88
2021/03/27 10:38:16;;;;;;;3.65;1.30;;;9.20;59.30;;;;;;4949995;28;20034;-87
2021/03/27 10:40:50;;;;;;;6.00;1.75;;;9.40;59.20;;;;;;4952140;29;20027;-89
2021/03/27 10:43:21;;;;;;;4.45;1.60;;;9.50;58.40;;;;;;4966180;28;20050;-91
2021/03/27 10:45:53;;;;;;;4.88;1.92;;;9.60;57.00;;;;;;4969940;28;20030;-89
2021/03/27 10:48:40;;;;;;;3.58;1.40;;;9.50;55.60;;;;;;4948432;28;20035;-89
2021/03/27 10:51:15;;;;;;;5.38;1.52;;;9.50;56.50;;;;;;4949153;28;20047;-90
2021/03/27 10:54:17;;;;;;;4.30;1.38;;;9.50;56.00;;;;;;4951984;28;20023;-89
2021/03/27 10:57:22;;;;;;;5.65;1.50;;;9.70;56.60;;;;;;4950823;28;20073;-90
2021/03/27 11:00:17;;;;;;;4.53;1.30;;;9.80;55.50;;;;;;4952558;29;20038;-89
2021/03/27 11:03:06;;;;;;;5.85;1.73;;;9.80;55.30;;;;;;4953252;28;20569;-91
2021/03/27 11:06:09;;;;;;;6.72;1.40;;;9.90;53.80;;;;;;4969182;28;20027;-90
2021/03/27 11:09:18;;;;;;;4.97;1.38;;;9.90;52.80;;;;;;4945727;28;20035;-88
2021/03/27 11:12:02;;;;;;;3.85;1.20;;;10.00;53.00;;;;;;4954544;28;20037;-90
2021/03/27 11:14:31;;;;;;;2.78;1.35;;;10.10;53.50;;;;;;4969481;28;20065;-90
2021/03/27 11:17:22;;;;;;;5.47;1.60;;;10.20;54.30;;;;;;4954973;28;20031;-91
2021/03/27 11:20:26;;;;;;;4.68;1.50;;;10.30;52.70;;;;;;4946666;29;20545;-90
2021/03/27 11:23:32;;;;;;;5.60;1.55;;;10.40;52.50;;;;;;4954206;28;20046;-92
2021/03/27 11:26:10;;;;;;;4.45;1.65;;;10.30;52.00;;;;;;4945419;29;20363;-91
2021/03/27 11:28:46;;;;;;;4.68;1.50;;;10.20;51.60;;;;;;4952571;28;20028;-92
2021/03/27 11:31:35;;;;;;;4.45;1.40;;;10.10;50.60;;;;;;4962503;28;20376;-90
2021/03/27 11:34:27;;;;;;;4.88;1.30;;;10.00;51.40;;;;;;4947938;28;20032;-92
2021/03/27 11:37:16;;;;;;;4.22;1.38;;;10.00;51.90;;;;;;4949582;29;20099;-91
2021/03/27 11:39:53;;;;;;;5.22;1.33;;;9.90;52.30;;;;;;4934873;28;20035;-92
2021/03/27 11:42:48;;;;;;;5.18;1.65;;;9.90;52.80;;;;;;4942483;28;20023;-91
2021/03/27 11:45:19;;;;;;;5.13;1.40;;;9.80;52.80;;;;;;4947776;28;20494;-92
2021/03/27 11:48:17;;;;;;;5.28;1.60;;;9.60;53.20;;;;;;4950094;29;20486;-92
2021/03/27 11:51:04;;;;;;;5.10;1.67;;;9.40;54.00;;;;;;4951134;28;20043;-90
2021/03/27 11:53:59;;;;;;;5.82;1.40;;;9.30;54.90;;;;;;4947383;29;20023;-91
2021/03/27 11:56:36;;;;;;;4.18;1.40;;;9.00;56.80;;;;;;4954379;28;20544;-89
2021/03/27 11:59:42;;;;;;;2.92;0.98;;;8.80;57.90;;;;;;4952582;28;20526;-89
2021/03/27 12:02:32;;;;;;;5.15;1.48;;;8.80;58.60;;;;;;4952084;28;20091;-90
2021/03/27 12:05:17;;;;;;;4.30;1.38;;;8.80;59.30;;;;;;4952994;28;20031;-89
2021/03/27 12:08:15;;;;;;;4.90;1.40;;;8.90;59.50;;;;;;4947795;28;20031;-88
2021/03/27 12:11:08;;;;;;;8.85;1.98;;;9.00;59.60;;;;;;4945773;29;20039;-88
2021/03/27 12:13:56;;;;;;;6.65;1.55;;;9.10;59.60;;;;;;4944897;29;20031;-88
2021/03/27 12:16:26;;;;;;;5.22;1.60;;;9.10;59.60;;;;;;4951904;28;20382;-88
2021/03/27 12:19:23;;;;;;;4.72;1.50;;;9.20;59.40;;;;;;4948756;28;20035;-89
2021/03/27 12:22:13;;;;;;;4.65;1.30;;;9.30;59.30;;;;;;4952818;29;20101;-90
2021/03/27 12:24:42;;;;;;;7.75;2.00;;;9.30;59.40;;;;;;4955757;29;20030;-90
2021/03/27 12:27:35;;;;;;;3.80;1.10;;;9.20;59.30;;;;;;4955578;28;20051;-90
2021/03/27 12:30:40;;;;;;;4.28;1.17;;;9.10;60.00;;;;;;4951732;28;20035;-88
2021/03/27 12:33:18;;;;;;;5.20;1.40;;;8.90;61.00;;;;;;4903257;29;20035;-89
2021/03/27 12:36:02;;;;;;;4.07;1.20;;;8.70;62.40;;;;;;4962716;28;20050;-89
2021/03/27 12:41:53;;;;;;;3.33;1.60;;;8.90;63.90;;;;;;4938925;29;20032;-91
2021/03/27 12:44:38;;;;;;;3.63;1.40;;;9.10;63.80;;;;;;4963576;28;20047;-90
2021/03/27 12:47:22;;;;;;;4.80;1.40;;;9.10;63.90;;;;;;4964486;28;20035;-93
2021/03/27 12:50:18;;;;;;;6.47;1.40;;;9.30;64.00;;;;;;4953751;29;20034;-93
2021/03/27 12:53:13;;;;;;;4.95;1.70;;;9.30;64.10;;;;;;4972988;28;20034;-95
2021/03/27 12:56:16;;;;;;;3.88;1.25;;;9.40;64.10;;;;;;4957939;29;20050;-94
2021/03/27 12:59:00;;;;;;;6.40;1.50;;;9.40;63.80;;;;;;4957230;29;20081;-94
2021/03/27 13:01:49;;;;;;;4.90;1.20;;;9.50;63.70;;;;;;4985335;28;20107;-91
2021/03/27 13:04:54;;;;;;;5.35;1.70;;;9.60;64.00;;;;;;4979886;28;20038;-91
2021/03/27 13:07:23;;;;;;;4.88;1.58;;;9.70;63.60;;;;;;4987476;28;20090;-91
2021/03/27 13:09:57;;;;;;;6.90;2.03;;;9.70;63.00;;;;;;4972294;28;20031;-91
2021/03/27 13:12:32;;;;;;;6.18;1.80;;;9.90;62.70;;;;;;4968476;28;20271;-94
2021/03/27 13:15:29;;;;;;;7.13;1.65;;;10.00;61.30;;;;;;4976101;28;20129;-94
2021/03/27 13:18:25;;;;;;;4.60;1.63;;;10.10;60.40;;;;;;4975666;28;20038;-95
2021/03/27 13:21:34;;;;;;;6.65;1.63;;;10.10;60.40;;;;;;4976358;29;20011;-92
2021/03/27 13:24:12;;;;;;;6.45;1.90;;;10.30;59.80;;;;;;4971574;28;20066;-94
2021/03/27 13:26:39;;;;;;;7.18;1.52;;;10.60;59.10;;;;;;4978447;28;20112;-96
2021/03/27 13:29:34;;;;;;;5.30;1.73;;;10.70;58.30;;;;;;4979188;28;20027;-96
2021/03/27 13:32:30;;;;;;;9.57;2.35;;;10.80;58.10;;;;;;4976203;28;20074;-95
2021/03/27 13:35:18;;;;;;;5.82;1.80;;;10.90;57.20;;;;;;4975360;28;20027;-96
2021/03/27 13:37:51;;;;;;;5.28;1.48;;;11.10;56.70;;;;;;4968868;28;20027;-96
2021/03/27 13:40:27;;;;;;;4.53;1.40;;;11.10;56.50;;;;;;4991710;28;20031;-95
2021/03/27 13:42:55;;;;;;;7.50;1.70;;;11.10;56.30;;;;;;4979689;28;20027;-92
2021/03/27 13:45:44;;;;;;;5.00;1.60;;;11.10;56.10;;;;;;4974770;28;20115;-90
2021/03/27 13:48:10;;;;;;;6.28;1.60;;;11.10;55.60;;;;;;4965629;28;20110;-96
2021/03/27 13:51:01;;;;;;;5.05;1.45;;;11.00;55.10;;;;;;4958950;28;20126;-94
2021/03/27 13:53:50;;;;;;;4.00;1.17;;;10.90;53.80;;;;;;4952270;29;20389;-93
2021/03/27 13:56:38;;;;;;;5.20;1.50;;;10.80;53.70;;;;;;4956349;29;20085;-92
2021/03/27 13:59:23;;;;;;;9.20;1.70;;;10.60;53.70;;;;;;4955516;29;20019;-93
2021/03/27 14:02:27;;;;;;;7.80;1.85;;;10.50;55.10;;;;;;4955966;28;20024;-92
2021/03/27 14:05:21;;;;;;;3.22;1.20;;;10.40;55.60;;;;;;4957081;28;20042;-92
2021/03/27 14:08:01;;;;;;;6.40;1.67;;;10.30;55.90;;;;;;4966252;28;20031;-93
2021/03/27 14:10:54;;;;;;;8.40;2.05;;;10.30;55.50;;;;;;4971810;28;20557;-93
2021/03/27 14:13:42;;;;;;;5.75;1.40;;;10.30;55.70;;;;;;4971949;28;20031;-93
2021/03/27 14:16:36;;;;;;;6.55;1.67;;;10.40;56.00;;;;;;4962930;28;20116;-94
2021/03/27 14:19:44;;;;;;;4.93;1.60;;;10.60;55.90;;;;;;4951138;29;20027;-93
2021/03/27 14:22:29;;;;;;;6.35;1.90;;;10.60;55.90;;;;;;4961979;28;20047;-95
2021/03/27 14:25:18;;;;;;;3.47;1.50;;;10.60;55.70;;;;;;4971334;28;20070;-94
2021/03/27 14:28:23;;;;;;;6.18;1.80;;;10.60;56.00;;;;;;4954826;28;20036;-94
2021/03/27 14:31:04;;;;;;;4.45;1.55;;;10.60;56.00;;;;;;4969436;28;20046;-94
2021/03/27 14:34:07;;;;;;;5.93;1.77;;;10.50;55.40;;;;;;4953574;29;20038;-92
2021/03/27 14:37:11;;;;;;;4.25;1.63;;;10.40;54.70;;;;;;4955569;28;20027;-92